Decoded Metar for OING (GORGAN in IRAN) (IATA:N/A) | Meteo·Mobile Aviation Weather
aviador You're here:

OING Decoded Metar

GORGAN in IRAN
Report Time2018-11-20 05:00:00
UTC Time2018-11-20 05:24:45
Flight Rules ifr IFR
WindCalm
Visibility3000 m
Phenomena:Mist
Clouds:N/A
Expected CloudBase > 400 ft AGL from Temp-Dew spread
CeilingNone
Temp09°C (ISA -5)
Dew Point08°C (94% RH)
AAT8.6°C
QNH1025 hPa
Density Alt-348 ft
Elevation509 ft
Report Wrong Elevation
Raw Report
METAR OING 200500Z 00000KT 3000 BR NSC 09/08 Q1025=

Extra information for OING:More info

Metar Taf Metar & Taf Last 4 Metars F.Rules Stats Wind Profile Meteogram Temp Stats Airport Information Weather charts Add Link Nearby VenuesMetar ALERT Operation Metar Decoded Social comments